Time;durP1;ratioP1;P1;durP2;ratioP2;P2;SDS_P1;SDS_P2;PMS_P1;PMS_P2;Temp;Humidity;BMP_temperature;BMP_pressure;BME280_temperature;BME280_humidity;BME280_pressure;Samples;Min_cycle;Max_cycle;Signal;HPM_P1;HPM_P2
2022/12/13 00:00:13;;;;;;;16.10;8.05;;;-0.70;79.00;;;;;;4974757;28;20113;-16
2022/12/13 00:02:43;;;;;;;17.88;9.20;;;-0.70;79.10;;;;;;4974339;28;20035;-16
2022/12/13 00:05:09;;;;;;;17.95;9.35;;;-0.60;79.10;;;;;;4974375;28;20026;-12
2022/12/13 00:07:35;;;;;;;18.08;8.70;;;-0.60;79.00;;;;;;4974507;28;20031;-17
2022/12/13 00:10:02;;;;;;;14.98;7.68;;;-0.50;79.10;;;;;;4974594;28;20053;-16
2022/12/13 00:12:28;;;;;;;14.60;8.25;;;-0.50;78.90;;;;;;4974454;28;20023;-17
2022/12/13 00:14:54;;;;;;;19.13;9.63;;;-0.50;78.90;;;;;;4974032;28;20101;-16
2022/12/13 00:17:20;;;;;;;16.33;8.73;;;-0.50;79.10;;;;;;4974888;28;20134;-17
2022/12/13 00:19:47;;;;;;;14.75;8.60;;;-0.50;78.90;;;;;;4974083;28;20027;-17
2022/12/13 00:22:13;;;;;;;17.65;8.75;;;-0.50;78.80;;;;;;4974366;28;20027;-16
2022/12/13 00:24:39;;;;;;;18.23;8.75;;;-0.50;79.00;;;;;;4974136;28;20123;-17
2022/12/13 00:27:05;;;;;;;13.50;7.00;;;-0.50;79.00;;;;;;4973461;28;20031;-16
2022/12/13 00:29:32;;;;;;;12.95;7.47;;;-0.50;78.90;;;;;;4974377;28;20030;-16
2022/12/13 00:31:58;;;;;;;12.40;7.20;;;-0.50;78.80;;;;;;4974410;28;20030;-16
2022/12/13 00:34:24;;;;;;;12.15;6.90;;;-0.40;78.70;;;;;;4974210;28;20351;-18
2022/12/13 00:36:53;;;;;;;12.05;6.82;;;-0.40;78.60;;;;;;4974186;28;20026;-17
2022/12/13 00:39:19;;;;;;;12.07;6.50;;;-0.40;78.50;;;;;;4973543;28;20352;-17
2022/12/13 00:41:45;;;;;;;12.88;6.93;;;-0.40;78.50;;;;;;4973782;28;20517;-16
2022/12/13 00:44:13;;;;;;;15.05;7.05;;;-0.40;78.50;;;;;;4974056;28;20034;-16
2022/12/13 00:46:39;;;;;;;15.43;7.25;;;-0.30;78.40;;;;;;4974256;28;20027;-15
2022/12/13 00:49:06;;;;;;;11.70;6.60;;;-0.30;78.50;;;;;;4973696;28;20019;-17
2022/12/13 00:51:33;;;;;;;13.40;7.13;;;-0.30;78.40;;;;;;4973804;28;20030;-14
2022/12/13 00:54:00;;;;;;;12.43;7.10;;;-0.30;78.40;;;;;;4974187;28;20115;-16
2022/12/13 00:56:28;;;;;;;11.70;6.38;;;-0.30;78.40;;;;;;4973865;28;20131;-14
2022/12/13 00:58:55;;;;;;;13.95;7.25;;;-0.20;78.20;;;;;;4973920;28;20034;-16
2022/12/13 01:01:28;;;;;;;13.45;7.60;;;-0.20;78.30;;;;;;4973757;28;20118;-16
2022/12/13 01:03:55;;;;;;;14.50;7.65;;;-0.10;78.30;;;;;;4974005;28;20023;-14
2022/12/13 01:06:37;;;;;;;12.45;6.55;;;-0.10;78.20;;;;;;4973566;28;20051;-14
2022/12/13 01:09:05;;;;;;;15.57;7.57;;;-0.10;78.20;;;;;;4973643;28;20030;-12
2022/12/13 01:11:31;;;;;;;11.50;6.63;;;0.00;78.10;;;;;;4973685;28;20030;-13
2022/12/13 01:13:57;;;;;;;13.88;7.72;;;0.00;78.00;;;;;;4973668;28;20030;-14
2022/12/13 01:16:23;;;;;;;13.35;7.72;;;0.00;78.00;;;;;;4973736;28;20055;-15
2022/12/13 01:18:49;;;;;;;14.77;7.65;;;0.00;78.00;;;;;;4973487;28;20078;-15
2022/12/13 01:21:18;;;;;;;12.23;6.80;;;0.00;78.10;;;;;;4972161;28;20117;-14
2022/12/13 01:23:44;;;;;;;14.45;7.35;;;0.00;78.00;;;;;;4973833;28;20035;-12
2022/12/13 01:26:12;;;;;;;15.02;8.38;;;0.00;78.10;;;;;;4973643;28;20023;-15
2022/12/13 01:28:38;;;;;;;14.80;8.13;;;0.00;78.00;;;;;;4973880;28;20035;-15
2022/12/13 01:31:08;;;;;;;17.20;8.32;;;0.00;78.10;;;;;;4972091;28;20019;-16
2022/12/13 01:33:34;;;;;;;16.42;7.75;;;0.00;78.20;;;;;;4973681;28;20033;-16
2022/12/13 01:36:03;;;;;;;16.52;8.57;;;0.00;78.20;;;;;;4973432;28;20142;-17
2022/12/13 01:38:29;;;;;;;16.20;8.82;;;0.00;78.30;;;;;;4973948;28;20487;-17
2022/12/13 01:40:58;;;;;;;14.43;8.50;;;0.00;78.40;;;;;;4976998;28;20430;-17
2022/12/13 01:43:28;;;;;;;14.18;6.50;;;0.00;78.50;;;;;;4976787;28;20070;-14
2022/12/13 01:45:54;;;;;;;16.30;8.57;;;0.00;78.50;;;;;;4977124;28;20025;-17
2022/12/13 01:48:27;;;;;;;11.43;6.05;;;0.00;78.60;;;;;;4976806;28;20030;-16
2022/12/13 01:50:58;;;;;;;19.05;8.48;;;0.00;78.50;;;;;;4976535;28;20043;-15
2022/12/13 01:53:28;;;;;;;15.60;7.78;;;0.00;78.50;;;;;;4976906;28;20035;-17
2022/12/13 01:56:01;;;;;;;14.65;8.18;;;0.00;78.50;;;;;;4976978;28;20106;-16
2022/12/13 01:58:27;;;;;;;15.43;8.02;;;0.00;78.50;;;;;;4977271;28;20055;-16
2022/12/13 02:00:53;;;;;;;16.20;8.38;;;0.00;78.60;;;;;;4976298;28;20062;-17
2022/12/13 02:03:21;;;;;;;17.95;8.45;;;0.00;78.60;;;;;;4976638;28;20030;-16
2022/12/13 02:06:03;;;;;;;15.95;7.88;;;0.00;78.50;;;;;;4976119;28;20055;-16
2022/12/13 02:08:29;;;;;;;14.25;7.72;;;0.00;78.50;;;;;;4976406;28;20027;-17
2022/12/13 02:10:56;;;;;;;17.00;8.82;;;0.00;78.60;;;;;;4976971;28;20033;-15
2022/12/13 02:13:22;;;;;;;16.98;8.20;;;0.10;78.60;;;;;;4974940;28;20110;-16
2022/12/13 02:16:14;;;;;;;17.52;8.90;;;0.00;78.60;;;;;;4976164;28;20126;-15
2022/12/13 02:18:58;;;;;;;15.50;7.93;;;0.00;78.60;;;;;;4978187;28;20058;-15
2022/12/13 02:21:32;;;;;;;;;;;0.00;78.60;;;;;;4976727;28;20510;-15
2022/12/13 02:24:16;;;;;;;15.35;8.20;;;0.00;78.40;;;;;;4976019;28;19914;-15
2022/12/13 02:26:45;;;;;;;;;;;0.00;78.70;;;;;;4975251;28;20042;-16
2022/12/13 02:29:50;;;;;;;15.02;8.07;;;0.00;78.50;;;;;;4976704;28;19992;-16
2022/12/13 02:32:31;;;;;;;14.20;7.78;;;0.00;78.50;;;;;;4976049;28;20042;-16
2022/12/13 02:35:01;;;;;;;13.98;7.60;;;0.00;78.60;;;;;;4976086;28;20038;-16
2022/12/13 02:38:18;;;;;;;15.65;8.27;;;0.00;78.50;;;;;;4975802;28;20023;-15
2022/12/13 02:41:11;;;;;;;14.88;7.70;;;0.10;78.50;;;;;;4954252;29;20031;-15
2022/12/13 02:43:42;;;;;;;13.88;7.50;;;0.10;78.50;;;;;;4954032;29;20439;-17
2022/12/13 02:46:10;;;;;;;13.52;8.18;;;0.10;78.60;;;;;;4954276;29;20042;-14
2022/12/13 02:48:40;;;;;;;15.57;8.38;;;0.10;78.50;;;;;;4954265;29;20042;-16
2022/12/13 02:51:10;;;;;;;15.32;7.65;;;0.10;78.50;;;;;;4953755;28;20492;-16
2022/12/13 02:53:38;;;;;;;14.23;8.52;;;0.10;78.40;;;;;;4937967;29;20027;-16
2022/12/13 02:56:05;;;;;;;15.73;8.63;;;0.10;78.50;;;;;;4938012;29;20023;-16
2022/12/13 02:58:35;;;;;;;15.15;8.00;;;0.10;78.40;;;;;;4953910;29;20135;-16
2022/12/13 03:01:27;;;;;;;13.65;7.10;;;0.10;78.40;;;;;;4953931;29;20039;-16
2022/12/13 03:04:16;;;;;;;16.88;9.05;;;0.10;78.50;;;;;;4953976;29;20063;-15
2022/12/13 03:07:28;;;;;;;15.18;7.65;;;0.10;78.60;;;;;;4953773;29;20446;-13
2022/12/13 03:10:11;;;;;;;15.48;7.97;;;0.10;78.60;;;;;;4953787;29;20082;-17
2022/12/13 03:15:36;;;;;;;16.08;8.50;;;0.10;78.40;;;;;;4954228;29;20049;-17
2022/12/13 03:18:18;;;;;;;16.90;8.10;;;0.10;78.50;;;;;;4972401;28;20031;-18
2022/12/13 03:24:06;;;;;;;15.35;7.97;;;0.10;78.20;;;;;;4974984;28;20061;-17
2022/12/13 03:26:33;;;;;;;15.65;8.00;;;0.10;78.30;;;;;;4974532;28;20040;-18
2022/12/13 03:28:59;;;;;;;14.48;7.93;;;0.10;78.20;;;;;;4974505;28;20058;-17
2022/12/13 03:31:25;;;;;;;15.85;8.10;;;0.10;78.30;;;;;;4975340;28;20042;-17
2022/12/13 03:33:51;;;;;;;15.25;7.75;;;0.10;78.30;;;;;;4974762;28;20027;-16
2022/12/13 03:36:17;;;;;;;14.55;7.47;;;0.10;78.40;;;;;;4974789;28;20030;-16
2022/12/13 03:38:48;;;;;;;12.35;6.93;;;0.20;78.40;;;;;;4975337;28;20470;-16
2022/12/13 03:41:17;;;;;;;13.70;7.32;;;0.20;78.40;;;;;;4974582;28;20031;-18
2022/12/13 03:43:44;;;;;;;14.35;7.32;;;0.20;78.40;;;;;;4975266;28;20041;-18
2022/12/13 03:46:10;;;;;;;15.10;7.50;;;0.20;78.20;;;;;;4974593;28;20027;-17
2022/12/13 03:48:36;;;;;;;14.90;8.00;;;0.30;78.20;;;;;;4974601;28;20034;-17
2022/12/13 03:51:02;;;;;;;14.57;7.60;;;0.30;78.10;;;;;;4974663;28;20467;-15
2022/12/13 03:53:29;;;;;;;14.88;7.05;;;0.30;78.20;;;;;;4974548;28;20394;-17
2022/12/13 03:55:55;;;;;;;12.32;6.65;;;0.40;78.20;;;;;;4974353;28;20023;-17
2022/12/13 03:58:21;;;;;;;11.27;6.25;;;0.40;78.20;;;;;;4974602;28;20089;-17
2022/12/13 04:00:48;;;;;;;12.25;6.70;;;0.40;78.10;;;;;;4973562;28;20395;-18
2022/12/13 04:03:14;;;;;;;13.23;6.95;;;0.50;77.80;;;;;;4974546;28;20035;-18
2022/12/13 04:05:40;;;;;;;14.27;7.10;;;0.50;77.30;;;;;;4972769;28;20057;-18
2022/12/13 04:08:07;;;;;;;13.15;6.60;;;0.50;77.50;;;;;;4974066;28;20046;-17
2022/12/13 04:10:34;;;;;;;13.40;7.00;;;0.50;77.70;;;;;;4974173;28;20027;-17
2022/12/13 04:15:47;;;;;;;12.98;6.63;;;0.60;77.70;;;;;;4974717;28;20533;-17
2022/12/13 04:18:17;;;;;;;14.40;7.50;;;0.60;77.80;;;;;;4974272;28;20047;-17
2022/12/13 04:20:45;;;;;;;16.13;7.47;;;0.70;77.80;;;;;;4974416;28;20035;-18
2022/12/13 04:23:11;;;;;;;12.85;7.40;;;0.70;77.80;;;;;;4973980;28;20042;-17
2022/12/13 04:25:38;;;;;;;13.90;7.50;;;0.70;77.80;;;;;;4973962;28;20368;-17
2022/12/13 04:28:05;;;;;;;14.43;7.95;;;0.70;77.70;;;;;;4974217;28;20034;-17
2022/12/13 04:30:31;;;;;;;14.02;7.72;;;0.70;77.70;;;;;;4974098;28;20026;-17
2022/12/13 04:32:57;;;;;;;15.95;7.05;;;0.70;77.40;;;;;;4973735;28;20438;-17
2022/12/13 04:35:24;;;;;;;14.43;7.47;;;0.70;77.60;;;;;;4974363;28;20134;-17
2022/12/13 04:37:50;;;;;;;13.75;7.38;;;0.70;77.70;;;;;;4973891;28;20030;-18
2022/12/13 04:40:16;;;;;;;12.70;6.88;;;0.60;77.80;;;;;;4973999;28;20081;-18
2022/12/13 04:42:42;;;;;;;16.77;7.50;;;0.60;77.80;;;;;;4972950;28;20037;-18
2022/12/13 04:45:12;;;;;;;13.40;6.65;;;0.70;77.40;;;;;;4973819;28;20058;-17
2022/12/13 04:47:38;;;;;;;14.60;6.60;;;0.70;77.70;;;;;;4973874;28;20022;-17
2022/12/13 04:50:05;;;;;;;14.10;7.30;;;0.70;77.60;;;;;;4974096;28;20114;-17
2022/12/13 04:52:30;;;;;;;13.23;6.93;;;0.60;77.60;;;;;;4973838;28;20023;-18
2022/12/13 04:54:56;;;;;;;13.55;6.65;;;0.70;77.70;;;;;;4973505;28;20049;-18
2022/12/13 04:57:22;;;;;;;17.33;7.10;;;0.70;77.80;;;;;;4973665;28;20483;-18
2022/12/13 04:59:48;;;;;;;12.73;6.00;;;0.70;77.80;;;;;;4973672;28;20114;-18
2022/12/13 05:02:15;;;;;;;15.02;7.53;;;0.70;77.80;;;;;;4973746;28;20041;-18
2022/12/13 05:04:41;;;;;;;15.43;7.82;;;0.70;78.00;;;;;;4973642;28;20050;-18
2022/12/13 05:07:07;;;;;;;14.57;7.32;;;0.80;78.00;;;;;;4973309;28;20054;-17
2022/12/13 05:09:33;;;;;;;15.40;6.60;;;0.80;78.00;;;;;;4973708;28;20391;-18
2022/12/13 05:11:58;;;;;;;12.18;6.55;;;0.80;78.00;;;;;;4974140;28;20054;-17
2022/12/13 05:14:24;;;;;;;16.38;7.53;;;0.80;78.20;;;;;;4977411;28;20442;-18
2022/12/13 05:16:50;;;;;;;13.05;6.90;;;0.80;78.00;;;;;;4977675;28;20467;-18
2022/12/13 05:19:16;;;;;;;11.10;5.93;;;0.80;78.10;;;;;;4977245;28;20034;-17
2022/12/13 05:21:42;;;;;;;11.73;6.00;;;0.90;78.10;;;;;;4977000;28;20119;-18
2022/12/13 05:24:09;;;;;;;15.05;7.50;;;0.90;78.10;;;;;;4976983;28;20130;-18
2022/12/13 05:26:35;;;;;;;13.98;6.63;;;0.90;78.10;;;;;;4977036;28;20471;-16
2022/12/13 05:29:01;;;;;;;16.38;7.22;;;1.00;78.10;;;;;;4977081;28;20023;-17
2022/12/13 05:31:27;;;;;;;13.75;6.38;;;1.00;78.10;;;;;;4976956;28;20054;-18
2022/12/13 05:33:53;;;;;;;12.05;6.45;;;0.90;78.00;;;;;;4977208;28;20055;-18
2022/12/13 05:36:24;;;;;;;12.80;6.88;;;1.00;78.10;;;;;;4976778;28;20034;-18
2022/12/13 05:38:50;;;;;;;9.68;5.55;;;1.00;78.00;;;;;;4976562;28;20031;-18
2022/12/13 05:41:19;;;;;;;13.65;6.68;;;1.00;78.00;;;;;;4976961;28;20034;-17
2022/12/13 05:43:45;;;;;;;11.73;6.25;;;1.00;78.10;;;;;;4976969;28;20105;-16
2022/12/13 05:46:12;;;;;;;14.82;7.22;;;1.00;78.20;;;;;;4976636;28;20458;-18
2022/12/13 05:48:38;;;;;;;13.18;7.47;;;1.00;78.40;;;;;;4975395;28;20023;-17
2022/12/13 05:51:04;;;;;;;15.70;7.53;;;1.00;78.40;;;;;;4976465;28;20034;-18
2022/12/13 05:53:30;;;;;;;14.18;6.68;;;0.90;78.30;;;;;;4976787;28;20023;-17
2022/12/13 05:56:00;;;;;;;13.65;7.53;;;0.90;78.00;;;;;;4976841;28;20178;-17
2022/12/13 05:58:26;;;;;;;11.77;6.50;;;0.90;78.10;;;;;;4976922;28;20493;-19
2022/12/13 06:00:52;;;;;;;13.75;6.90;;;0.90;78.00;;;;;;4976472;28;20037;-16
2022/12/13 06:03:18;;;;;;;12.40;6.75;;;0.90;78.10;;;;;;4976412;28;20031;-18
2022/12/13 06:05:44;;;;;;;13.05;6.70;;;0.90;77.90;;;;;;4976429;28;20043;-18
2022/12/13 06:08:10;;;;;;;14.43;7.75;;;0.80;78.00;;;;;;4976458;28;20027;-18
2022/12/13 06:10:37;;;;;;;12.93;6.90;;;0.90;78.00;;;;;;4976069;28;20034;-17
2022/12/13 06:13:04;;;;;;;12.13;7.13;;;0.90;78.10;;;;;;4974801;28;20035;-18
2022/12/13 06:15:31;;;;;;;14.02;7.65;;;0.80;78.20;;;;;;4976317;28;20134;-19
2022/12/13 06:17:59;;;;;;;14.55;8.20;;;0.90;78.20;;;;;;4976594;28;20030;-17
2022/12/13 06:20:25;;;;;;;19.00;9.40;;;0.80;78.20;;;;;;4976047;28;20386;-17
2022/12/13 06:22:52;;;;;;;17.00;8.35;;;0.90;78.30;;;;;;4975969;28;20034;-18
2022/12/13 06:25:18;;;;;;;14.82;7.97;;;0.90;78.20;;;;;;4975258;28;20545;-17
2022/12/13 06:27:44;;;;;;;12.63;7.25;;;0.90;78.30;;;;;;4975866;28;20077;-17
2022/12/13 06:30:11;;;;;;;13.75;8.00;;;0.90;78.30;;;;;;4976113;28;20070;-17
2022/12/13 06:32:37;;;;;;;17.27;8.05;;;0.90;78.20;;;;;;4975873;28;20506;-19
2022/12/13 06:35:03;;;;;;;16.50;7.80;;;0.90;78.10;;;;;;4975629;28;20023;-19
2022/12/13 06:37:29;;;;;;;17.52;7.22;;;0.80;78.20;;;;;;4975591;28;20073;-18
2022/12/13 06:39:55;;;;;;;14.32;7.25;;;0.90;78.10;;;;;;4975810;28;20117;-18
2022/12/13 06:42:21;;;;;;;11.30;6.55;;;0.80;77.90;;;;;;4976012;28;20023;-17
2022/12/13 06:44:50;;;;;;;13.13;7.22;;;0.90;77.90;;;;;;4975356;28;20041;-17
2022/12/13 06:47:16;;;;;;;14.73;6.50;;;0.90;77.90;;;;;;4975537;28;20034;-16
2022/12/13 06:49:42;;;;;;;10.65;5.93;;;0.90;77.70;;;;;;4975492;28;20022;-18
2022/12/13 06:52:13;;;;;;;13.05;6.70;;;0.90;77.40;;;;;;4975499;28;20055;-18
2022/12/13 06:54:40;;;;;;;26.20;7.72;;;0.90;77.70;;;;;;4976062;28;20038;-18
2022/12/13 06:57:06;;;;;;;12.88;7.43;;;0.90;77.40;;;;;;4975323;28;20023;-18
2022/12/13 06:59:32;;;;;;;14.05;7.82;;;0.90;77.50;;;;;;4975448;28;20031;-18
2022/12/13 07:01:58;;;;;;;17.60;9.85;;;0.90;77.40;;;;;;4975449;28;20105;-18
2022/12/13 07:04:24;;;;;;;33.70;22.05;;;0.90;77.60;;;;;;4975394;28;20394;-17
2022/12/13 07:06:50;;;;;;;23.20;14.57;;;0.90;77.60;;;;;;4974796;28;20062;-18
2022/12/13 07:09:16;;;;;;;18.38;9.55;;;0.90;76.90;;;;;;4975825;28;20498;-17
2022/12/13 07:11:42;;;;;;;21.17;12.95;;;0.90;76.90;;;;;;4975426;28;20027;-18
2022/12/13 07:14:08;;;;;;;20.48;14.50;;;1.00;77.20;;;;;;4974994;28;20502;-18
2022/12/13 07:16:34;;;;;;;24.33;16.55;;;1.00;76.70;;;;;;4975178;28;20027;-18
2022/12/13 07:19:01;;;;;;;19.15;11.10;;;1.00;77.00;;;;;;4974749;28;20105;-19
2022/12/13 07:21:28;;;;;;;19.50;12.13;;;1.00;77.00;;;;;;4974871;28;20411;-18
2022/12/13 07:23:54;;;;;;;16.52;9.35;;;1.10;77.10;;;;;;4975099;28;20031;-17
2022/12/13 07:26:20;;;;;;;17.65;8.77;;;1.10;77.30;;;;;;4974728;28;20023;-17
2022/12/13 07:28:46;;;;;;;16.35;7.72;;;1.20;77.40;;;;;;4974738;28;20027;-23
2022/12/13 07:31:13;;;;;;;16.13;8.10;;;1.20;77.30;;;;;;4975107;28;20105;-17
2022/12/13 07:33:39;;;;;;;17.58;8.98;;;1.20;77.00;;;;;;4974767;28;20023;-17
2022/12/13 07:36:13;;;;;;;17.52;8.82;;;1.30;77.10;;;;;;4973433;28;20434;-16
2022/12/13 07:38:39;;;;;;;17.42;8.80;;;1.30;77.10;;;;;;4974772;28;20026;-19
2022/12/13 07:41:06;;;;;;;14.10;7.78;;;1.30;75.90;;;;;;4974607;28;20113;-18
2022/12/13 07:43:32;;;;;;;14.90;8.43;;;1.30;76.50;;;;;;4974513;28;20098;-17
2022/12/13 07:46:00;;;;;;;13.30;6.68;;;1.40;76.50;;;;;;4974853;28;20061;-17
2022/12/13 07:48:27;;;;;;;21.02;9.48;;;1.40;76.70;;;;;;4973274;28;20035;-17
2022/12/13 07:50:58;;;;;;;15.35;7.70;;;1.40;76.60;;;;;;4974130;28;20033;-18
2022/12/13 07:53:24;;;;;;;13.40;7.78;;;1.50;76.70;;;;;;4974575;28;20077;-16
2022/12/13 07:55:50;;;;;;;15.27;9.02;;;1.50;76.60;;;;;;4974247;28;20034;-17
2022/12/13 07:58:16;;;;;;;24.92;10.82;;;1.50;76.50;;;;;;4974187;28;20023;-18
2022/12/13 08:00:44;;;;;;;44.75;22.13;;;1.60;76.40;;;;;;4974485;28;20106;-18
2022/12/13 08:03:11;;;;;;;63.47;27.25;;;1.60;76.30;;;;;;4974047;28;20118;-17
2022/12/13 08:05:38;;;;;;;64.95;25.70;;;1.60;76.10;;;;;;4974318;28;20466;-18
2022/12/13 08:08:08;;;;;;;100.45;41.55;;;1.60;76.40;;;;;;4974084;28;20051;-20
2022/12/13 08:10:34;;;;;;;60.83;29.40;;;1.60;76.50;;;;;;4974596;28;20114;-18
2022/12/13 08:13:04;;;;;;;49.63;25.10;;;1.70;76.40;;;;;;4973840;28;20034;-18
2022/12/13 08:15:30;;;;;;;36.28;19.05;;;1.60;76.20;;;;;;4974077;28;20027;-18
2022/12/13 08:17:59;;;;;;;31.63;17.48;;;1.70;75.90;;;;;;4974397;28;20105;-17
2022/12/13 08:20:25;;;;;;;24.52;14.50;;;1.70;75.60;;;;;;4974450;28;20082;-18
2022/12/13 08:22:58;;;;;;;18.73;11.55;;;1.80;75.70;;;;;;4974083;28;20102;-18
2022/12/13 08:25:25;;;;;;;18.70;10.48;;;1.80;75.50;;;;;;4974287;28;20077;-18
2022/12/13 08:27:51;;;;;;;25.83;14.75;;;1.80;75.70;;;;;;4974185;28;20077;-17
2022/12/13 08:30:18;;;;;;;23.15;12.20;;;1.90;75.60;;;;;;4974259;28;20057;-17
2022/12/13 08:32:44;;;;;;;20.73;10.23;;;1.90;75.70;;;;;;4973940;28;20110;-16
2022/12/13 08:35:10;;;;;;;16.25;9.57;;;2.00;75.70;;;;;;4973706;28;20041;-17
2022/12/13 08:37:37;;;;;;;18.05;8.32;;;2.10;75.10;;;;;;4972578;28;20027;-18
2022/12/13 08:40:05;;;;;;;13.13;8.07;;;2.10;74.80;;;;;;4973804;28;20026;-17
2022/12/13 08:42:31;;;;;;;13.68;7.55;;;2.20;74.40;;;;;;4973841;28;20026;-17
2022/12/13 08:44:57;;;;;;;14.77;8.18;;;2.20;74.10;;;;;;4973025;28;20042;-17
2022/12/13 08:47:25;;;;;;;14.48;8.02;;;2.30;74.40;;;;;;4974349;28;20110;-17
2022/12/13 08:49:58;;;;;;;15.15;7.97;;;2.30;74.00;;;;;;4977639;28;20121;-16
2022/12/13 08:52:24;;;;;;;13.40;6.80;;;2.40;74.10;;;;;;4977732;28;20058;-18
2022/12/13 08:54:50;;;;;;;16.20;7.78;;;2.50;74.50;;;;;;4977956;28;20054;-18
2022/12/13 08:57:16;;;;;;;19.25;8.70;;;2.60;74.60;;;;;;4977451;28;20066;-16
2022/12/13 08:59:42;;;;;;;17.70;9.40;;;2.60;74.80;;;;;;4977845;28;20034;-18
2022/12/13 09:02:13;;;;;;;17.30;9.45;;;2.80;74.00;;;;;;4977771;28;20394;-18
2022/12/13 09:04:39;;;;;;;21.65;9.18;;;2.80;74.40;;;;;;4977283;28;20037;-17
2022/12/13 09:07:05;;;;;;;17.45;8.63;;;2.90;74.30;;;;;;4976998;28;20051;-16
2022/12/13 09:09:31;;;;;;;14.85;7.75;;;3.00;73.90;;;;;;4977300;28;20043;-16
2022/12/13 09:11:57;;;;;;;14.57;8.13;;;3.10;74.00;;;;;;4977271;28;20509;-18
2022/12/13 09:14:23;;;;;;;11.95;6.85;;;3.10;74.00;;;;;;4977502;28;20015;-18
2022/12/13 09:16:49;;;;;;;18.83;8.10;;;3.20;73.90;;;;;;4976995;28;20476;-17
2022/12/13 09:19:15;;;;;;;17.88;7.88;;;3.40;73.80;;;;;;4977526;28;20038;-16
2022/12/13 09:21:41;;;;;;;17.90;7.95;;;3.40;73.50;;;;;;4977317;28;20026;-18
2022/12/13 09:24:07;;;;;;;16.48;8.50;;;3.50;73.40;;;;;;4976806;28;20022;-18
2022/12/13 09:26:32;;;;;;;13.93;8.18;;;3.50;73.00;;;;;;4977354;28;20122;-17
2022/12/13 09:28:58;;;;;;;16.38;7.55;;;3.50;69.50;;;;;;4976655;28;20019;-17
2022/12/13 09:31:24;;;;;;;16.13;9.30;;;3.60;71.10;;;;;;4977328;28;20130;-17
2022/12/13 09:33:50;;;;;;;14.40;8.75;;;3.60;71.90;;;;;;4977410;28;20023;-17
2022/12/13 09:36:19;;;;;;;18.52;9.40;;;3.60;72.30;;;;;;4977445;28;20023;-17
2022/12/13 09:38:46;;;;;;;14.57;8.00;;;3.70;72.10;;;;;;4975519;28;20449;-17
2022/12/13 09:41:14;;;;;;;17.67;9.65;;;3.70;72.50;;;;;;4976800;28;20039;-17
2022/12/13 09:43:43;;;;;;;17.23;9.80;;;3.70;72.30;;;;;;4976744;28;20035;-17
2022/12/13 09:46:49;;;;;;;14.38;7.78;;;3.70;71.70;;;;;;4976730;28;20037;-17
2022/12/13 09:49:36;;;;;;;17.90;7.22;;;3.60;69.30;;;;;;4993853;28;20042;-16
2022/12/13 09:52:05;;;;;;;15.80;9.80;;;3.60;70.70;;;;;;4993964;28;20038;-14
2022/12/13 09:54:32;;;;;;;14.25;8.82;;;3.70;71.30;;;;;;4993831;28;20033;-16
2022/12/13 09:56:58;;;;;;;11.77;6.82;;;3.80;71.10;;;;;;4993786;28;20093;-14
2022/12/13 09:59:31;;;;;;;14.02;7.20;;;3.80;70.20;;;;;;4992850;28;20125;-15
2022/12/13 10:02:13;;;;;;;10.80;6.32;;;3.90;70.50;;;;;;4993665;28;20038;-14
2022/12/13 10:04:39;;;;;;;16.15;7.45;;;3.90;71.00;;;;;;4993677;28;20096;-16
2022/12/13 10:07:22;;;;;;;17.33;10.13;;;3.90;71.20;;;;;;4993244;28;20054;-16
2022/12/13 10:09:53;;;;;;;14.32;8.10;;;3.90;71.50;;;;;;4993662;28;20081;-14
2022/12/13 10:12:19;;;;;;;11.02;5.88;;;3.90;71.40;;;;;;4993859;28;20438;-15
2022/12/13 10:14:50;;;;;;;9.50;5.20;;;4.00;69.40;;;;;;4993485;28;20018;-16
2022/12/13 10:17:21;;;;;;;10.45;5.93;;;4.00;70.10;;;;;;4993265;28;20076;-13
2022/12/13 10:19:50;;;;;;;12.38;5.85;;;4.00;67.00;;;;;;4993284;28;20030;-16
2022/12/13 10:22:19;;;;;;;14.23;5.40;;;4.10;67.60;;;;;;4993276;28;20097;-16
2022/12/13 10:24:49;;;;;;;12.25;4.88;;;4.10;68.60;;;;;;4985141;28;20138;-16
2022/12/13 10:27:19;;;;;;;9.80;4.45;;;4.10;67.10;;;;;;4976067;28;20102;-18
2022/12/13 10:30:05;;;;;;;9.63;4.75;;;4.10;64.50;;;;;;4976298;28;20438;-16
2022/12/13 10:32:40;;;;;;;8.43;3.97;;;4.10;64.70;;;;;;4976164;28;20070;-17
2022/12/13 10:35:29;;;;;;;7.50;3.83;;;4.10;65.40;;;;;;4975850;28;20027;-17
2022/12/13 10:37:58;;;;;;;9.95;5.03;;;4.10;64.10;;;;;;4976002;28;20360;-14
2022/12/13 10:40:40;;;;;;;12.65;5.47;;;4.10;63.30;;;;;;4976066;28;20092;-16
2022/12/13 10:43:16;;;;;;;8.25;4.78;;;4.10;64.00;;;;;;4975457;28;20363;-13
2022/12/13 10:45:58;;;;;;;16.02;7.30;;;4.10;62.50;;;;;;4975628;28;20138;-15
2022/12/13 10:48:35;;;;;;;12.57;6.35;;;4.10;64.10;;;;;;4975973;28;20097;-16
2022/12/13 10:51:09;;;;;;;11.60;5.70;;;4.10;64.00;;;;;;4975333;28;20505;-16
2022/12/13 10:53:44;;;;;;;12.73;5.30;;;4.20;65.80;;;;;;4974141;28;20027;-15
2022/12/13 10:56:10;;;;;;;10.40;5.30;;;4.10;64.50;;;;;;4975530;28;20062;-13
2022/12/13 10:58:42;;;;;;;10.43;5.38;;;4.10;61.60;;;;;;4975682;28;20034;-15
2022/12/13 11:01:15;;;;;;;8.95;4.35;;;4.20;62.70;;;;;;4975178;28;20034;-14
2022/12/13 11:03:41;;;;;;;7.72;4.53;;;4.20;64.90;;;;;;4975208;28;20426;-16
2022/12/13 11:06:16;;;;;;;9.13;4.25;;;4.30;64.30;;;;;;4974969;28;20046;-16
2022/12/13 11:08:43;;;;;;;8.65;4.57;;;4.30;64.10;;;;;;4975372;28;20037;-15
2022/12/13 11:11:11;;;;;;;9.63;4.97;;;4.40;63.50;;;;;;4974538;28;20038;-14
2022/12/13 11:13:40;;;;;;;8.15;4.32;;;4.40;63.20;;;;;;4975096;28;20034;-15
2022/12/13 11:16:30;;;;;;;8.55;4.32;;;4.40;64.30;;;;;;4975307;28;20170;-18
2022/12/13 11:19:15;;;;;;;7.05;4.43;;;4.40;65.40;;;;;;4975022;28;20050;-17
2022/12/13 11:21:47;;;;;;;10.55;5.03;;;4.40;63.50;;;;;;4973775;28;20026;-15
2022/12/13 11:24:21;;;;;;;8.40;4.28;;;4.50;63.60;;;;;;4974746;28;20027;-16
2022/12/13 11:26:54;;;;;;;9.00;4.80;;;4.50;62.40;;;;;;4974741;28;20448;-14
2022/12/13 11:29:47;;;;;;;9.95;5.75;;;4.40;62.50;;;;;;4975339;28;20026;-13
2022/12/13 11:32:40;;;;;;;11.43;5.40;;;4.50;62.70;;;;;;4973794;28;20093;-14
2022/12/13 11:35:32;;;;;;;10.80;5.03;;;4.50;63.70;;;;;;4974565;28;20074;-15
2022/12/13 11:38:01;;;;;;;8.65;5.00;;;4.50;64.50;;;;;;4975008;28;20126;-16
2022/12/13 11:40:31;;;;;;;10.35;5.80;;;4.50;64.50;;;;;;4975168;28;20045;-14
2022/12/13 11:43:23;;;;;;;10.30;5.00;;;4.50;62.00;;;;;;4974753;28;20086;-16
2022/12/13 11:45:55;;;;;;;9.45;5.30;;;4.50;64.40;;;;;;4973481;28;20446;-12
2022/12/13 11:48:40;;;;;;;9.63;4.97;;;4.50;63.20;;;;;;4974520;28;20109;-14
2022/12/13 11:51:14;;;;;;;10.23;5.43;;;4.50;63.70;;;;;;4974259;28;20022;-13
2022/12/13 11:53:48;;;;;;;13.88;5.65;;;4.50;64.90;;;;;;4974374;28;20474;-14
2022/12/13 11:56:30;;;;;;;9.55;4.70;;;4.50;62.20;;;;;;4972321;28;20034;-16
2022/12/13 11:59:03;;;;;;;10.07;5.22;;;4.50;63.90;;;;;;4973728;28;20210;-13
2022/12/13 12:01:41;;;;;;;10.98;4.85;;;4.50;62.30;;;;;;4974453;28;20029;-17
2022/12/13 12:04:42;;;;;;;8.07;4.60;;;4.50;61.90;;;;;;4974116;28;20573;-17
2022/12/13 12:07:33;;;;;;;8.48;4.93;;;4.40;60.90;;;;;;4973312;28;20065;-16
2022/12/13 12:10:32;;;;;;;10.90;4.57;;;4.40;60.30;;;;;;4974034;28;20470;-14
2022/12/13 12:13:12;;;;;;;9.25;5.43;;;4.40;63.20;;;;;;4973488;28;20174;-15
2022/12/13 12:15:59;;;;;;;9.60;5.40;;;4.40;62.80;;;;;;4974481;28;20027;-17
2022/12/13 12:18:25;;;;;;;11.55;5.35;;;4.40;63.00;;;;;;4974118;28;20069;-17
2022/12/13 12:21:24;;;;;;;13.00;5.35;;;4.40;64.20;;;;;;4974067;28;20054;-16
2022/12/13 12:24:30;;;;;;;12.77;6.40;;;4.40;64.00;;;;;;4973197;28;20066;-16
2022/12/13 12:27:14;;;;;;;17.10;7.20;;;4.40;64.10;;;;;;4974006;28;20027;-17
2022/12/13 12:30:09;;;;;;;9.00;5.70;;;4.40;64.60;;;;;;4973996;28;20055;-17
2022/12/13 12:32:37;;;;;;;9.70;5.15;;;4.40;64.80;;;;;;4973842;28;20027;-17
2022/12/13 12:35:35;;;;;;;8.38;4.43;;;4.40;65.30;;;;;;4974265;28;20388;-17
2022/12/13 12:38:11;;;;;;;6.82;4.13;;;4.40;65.20;;;;;;4973775;28;20035;-15
2022/12/13 12:41:07;;;;;;;9.02;4.80;;;4.40;64.10;;;;;;4974035;28;20444;-15
2022/12/13 12:43:40;;;;;;;8.18;4.43;;;4.40;65.10;;;;;;4973958;28;20037;-15
2022/12/13 12:46:43;;;;;;;11.10;5.75;;;4.40;64.90;;;;;;4973803;28;20027;-17
2022/12/13 12:49:28;;;;;;;12.90;6.07;;;4.40;65.30;;;;;;4973736;28;20030;-17
2022/12/13 12:52:21;;;;;;;10.00;5.20;;;4.30;64.60;;;;;;4973797;28;20030;-15
2022/12/13 12:55:02;;;;;;;12.90;5.77;;;4.30;63.50;;;;;;4973585;28;20371;-12
2022/12/13 12:58:10;;;;;;;17.35;8.57;;;4.20;63.00;;;;;;4974120;28;20341;-17
2022/12/13 13:01:09;;;;;;;17.17;8.95;;;4.20;64.10;;;;;;4973778;28;20093;-17
2022/12/13 13:03:39;;;;;;;12.23;5.68;;;4.10;63.80;;;;;;4973630;28;20045;-17
2022/12/13 13:06:31;;;;;;;10.50;6.50;;;4.10;63.90;;;;;;4973684;28;20043;-16
2022/12/13 13:09:07;;;;;;;12.85;6.97;;;4.10;62.40;;;;;;4973460;28;20031;-16
2022/12/13 13:11:45;;;;;;;14.82;5.80;;;4.10;63.10;;;;;;4973959;28;20031;-16
2022/12/13 13:14:35;;;;;;;10.52;5.88;;;4.10;62.40;;;;;;4973710;28;20045;-18
2022/12/13 13:17:24;;;;;;;9.65;5.53;;;4.00;62.80;;;;;;4973621;28;20049;-18